sensor_id;sensor_type;location;lat;lon;timestamp;P1;durP1;ratioP1;P2;durP2;ratioP2
62696;SDS011;48761;42.680;23.312;2023-07-13T00:01:29;9.23;;;5.07;;
62696;SDS011;48761;42.680;23.312;2023-07-13T00:03:56;7.93;;;4.82;;
62696;SDS011;48761;42.680;23.312;2023-07-13T00:06:22;9.98;;;5.30;;
62696;SDS011;48761;42.680;23.312;2023-07-13T00:08:48;8.88;;;4.95;;
62696;SDS011;48761;42.680;23.312;2023-07-13T00:11:15;10.40;;;7.15;;
62696;SDS011;48761;42.680;23.312;2023-07-13T00:13:42;19.80;;;11.18;;
62696;SDS011;48761;42.680;23.312;2023-07-13T00:16:09;14.02;;;6.78;;
62696;SDS011;48761;42.680;23.312;2023-07-13T00:18:36;14.10;;;6.32;;
62696;SDS011;48761;42.680;23.312;2023-07-13T00:21:02;8.20;;;5.45;;
62696;SDS011;48761;42.680;23.312;2023-07-13T00:23:28;11.93;;;6.38;;
62696;SDS011;48761;42.680;23.312;2023-07-13T00:25:54;10.73;;;6.47;;
62696;SDS011;48761;42.680;23.312;2023-07-13T00:28:20;15.50;;;6.03;;
62696;SDS011;48761;42.680;23.312;2023-07-13T00:30:46;10.93;;;6.25;;
62696;SDS011;48761;42.680;23.312;2023-07-13T00:33:12;15.30;;;6.20;;
62696;SDS011;48761;42.680;23.312;2023-07-13T00:35:38;10.25;;;5.70;;
62696;SDS011;48761;42.680;23.312;2023-07-13T00:38:04;11.88;;;5.68;;
62696;SDS011;48761;42.680;23.312;2023-07-13T00:40:31;14.80;;;6.45;;
62696;SDS011;48761;42.680;23.312;2023-07-13T00:42:57;8.93;;;5.65;;
62696;SDS011;48761;42.680;23.312;2023-07-13T00:47:49;13.35;;;6.10;;
62696;SDS011;48761;42.680;23.312;2023-07-13T00:50:16;11.85;;;5.70;;
62696;SDS011;48761;42.680;23.312;2023-07-13T00:52:45;9.68;;;6.20;;
62696;SDS011;48761;42.680;23.312;2023-07-13T00:55:13;9.50;;;6.10;;
62696;SDS011;48761;42.680;23.312;2023-07-13T00:57:41;11.55;;;6.05;;
62696;SDS011;48761;42.680;23.312;2023-07-13T01:00:08;13.55;;;6.45;;
62696;SDS011;48761;42.680;23.312;2023-07-13T01:02:36;8.50;;;5.47;;
62696;SDS011;48761;42.680;23.312;2023-07-13T01:05:14;12.20;;;5.90;;
62696;SDS011;48761;42.680;23.312;2023-07-13T01:07:42;13.00;;;6.20;;
62696;SDS011;48761;42.680;23.312;2023-07-13T01:10:10;12.50;;;6.43;;
62696;SDS011;48761;42.680;23.312;2023-07-13T01:12:39;15.40;;;6.57;;
62696;SDS011;48761;42.680;23.312;2023-07-13T01:15:32;9.95;;;6.82;;
62696;SDS011;48761;42.680;23.312;2023-07-13T01:18:02;20.17;;;11.93;;
62696;SDS011;48761;42.680;23.312;2023-07-13T01:20:29;10.68;;;6.30;;
62696;SDS011;48761;42.680;23.312;2023-07-13T01:22:58;9.80;;;6.38;;
62696;SDS011;48761;42.680;23.312;2023-07-13T01:25:26;9.75;;;6.20;;
62696;SDS011;48761;42.680;23.312;2023-07-13T01:27:52;11.65;;;6.15;;
62696;SDS011;48761;42.680;23.312;2023-07-13T01:30:18;14.13;;;5.85;;
62696;SDS011;48761;42.680;23.312;2023-07-13T01:32:44;10.27;;;6.30;;
62696;SDS011;48761;42.680;23.312;2023-07-13T01:35:10;13.10;;;6.63;;
62696;SDS011;48761;42.680;23.312;2023-07-13T01:37:35;9.10;;;6.40;;
62696;SDS011;48761;42.680;23.312;2023-07-13T01:40:02;10.93;;;6.07;;
62696;SDS011;48761;42.680;23.312;2023-07-13T01:42:29;8.02;;;6.00;;
62696;SDS011;48761;42.680;23.312;2023-07-13T01:44:56;11.13;;;6.32;;
62696;SDS011;48761;42.680;23.312;2023-07-13T01:47:22;10.18;;;6.40;;
62696;SDS011;48761;42.680;23.312;2023-07-13T01:49:48;11.32;;;6.35;;
62696;SDS011;48761;42.680;23.312;2023-07-13T01:52:14;12.38;;;6.00;;
62696;SDS011;48761;42.680;23.312;2023-07-13T01:54:40;9.70;;;6.25;;
62696;SDS011;48761;42.680;23.312;2023-07-13T01:57:06;8.52;;;6.25;;
62696;SDS011;48761;42.680;23.312;2023-07-13T01:59:32;11.73;;;6.05;;
62696;SDS011;48761;42.680;23.312;2023-07-13T02:01:59;13.35;;;6.05;;
62696;SDS011;48761;42.680;23.312;2023-07-13T02:04:25;13.52;;;6.00;;
62696;SDS011;48761;42.680;23.312;2023-07-13T02:06:50;10.50;;;5.82;;
62696;SDS011;48761;42.680;23.312;2023-07-13T02:09:16;9.18;;;6.65;;
62696;SDS011;48761;42.680;23.312;2023-07-13T02:11:42;9.00;;;6.32;;
62696;SDS011;48761;42.680;23.312;2023-07-13T02:14:08;10.38;;;6.03;;
62696;SDS011;48761;42.680;23.312;2023-07-13T02:16:34;11.60;;;6.95;;
62696;SDS011;48761;42.680;23.312;2023-07-13T02:19:00;13.32;;;6.80;;
62696;SDS011;48761;42.680;23.312;2023-07-13T02:21:26;10.20;;;6.20;;
62696;SDS011;48761;42.680;23.312;2023-07-13T02:23:52;12.05;;;6.63;;
62696;SDS011;48761;42.680;23.312;2023-07-13T02:26:18;9.50;;;7.13;;
62696;SDS011;48761;42.680;23.312;2023-07-13T02:28:44;9.25;;;6.47;;
62696;SDS011;48761;42.680;23.312;2023-07-13T02:31:12;15.13;;;7.63;;
62696;SDS011;48761;42.680;23.312;2023-07-13T02:33:40;11.65;;;7.68;;
62696;SDS011;48761;42.680;23.312;2023-07-13T02:36:06;11.43;;;6.93;;
62696;SDS011;48761;42.680;23.312;2023-07-13T02:38:33;11.25;;;6.90;;
62696;SDS011;48761;42.680;23.312;2023-07-13T02:40:59;12.43;;;6.88;;
62696;SDS011;48761;42.680;23.312;2023-07-13T02:43:25;11.93;;;6.25;;
62696;SDS011;48761;42.680;23.312;2023-07-13T02:45:51;9.93;;;6.60;;
62696;SDS011;48761;42.680;23.312;2023-07-13T02:48:17;10.98;;;6.68;;
62696;SDS011;48761;42.680;23.312;2023-07-13T02:50:46;11.38;;;6.28;;
62696;SDS011;48761;42.680;23.312;2023-07-13T02:53:12;11.45;;;6.28;;
62696;SDS011;48761;42.680;23.312;2023-07-13T02:55:37;10.18;;;6.18;;
62696;SDS011;48761;42.680;23.312;2023-07-13T02:58:03;16.67;;;6.85;;
62696;SDS011;48761;42.680;23.312;2023-07-13T03:00:29;15.05;;;7.07;;
62696;SDS011;48761;42.680;23.312;2023-07-13T03:02:55;13.27;;;6.22;;
62696;SDS011;48761;42.680;23.312;2023-07-13T03:05:21;11.30;;;7.22;;
62696;SDS011;48761;42.680;23.312;2023-07-13T03:07:47;13.30;;;7.25;;
62696;SDS011;48761;42.680;23.312;2023-07-13T03:10:13;14.55;;;7.88;;
62696;SDS011;48761;42.680;23.312;2023-07-13T03:12:39;11.80;;;8.00;;
62696;SDS011;48761;42.680;23.312;2023-07-13T03:15:05;18.80;;;8.13;;
62696;SDS011;48761;42.680;23.312;2023-07-13T03:17:31;14.63;;;7.60;;
62696;SDS011;48761;42.680;23.312;2023-07-13T03:19:57;11.07;;;7.18;;
62696;SDS011;48761;42.680;23.312;2023-07-13T03:22:23;11.30;;;7.45;;
62696;SDS011;48761;42.680;23.312;2023-07-13T03:24:49;16.10;;;6.85;;
62696;SDS011;48761;42.680;23.312;2023-07-13T03:27:15;11.88;;;7.47;;
62696;SDS011;48761;42.680;23.312;2023-07-13T03:29:42;12.32;;;7.53;;
62696;SDS011;48761;42.680;23.312;2023-07-13T03:32:08;13.60;;;8.35;;
62696;SDS011;48761;42.680;23.312;2023-07-13T03:34:34;12.05;;;8.68;;
62696;SDS011;48761;42.680;23.312;2023-07-13T03:37:00;14.63;;;8.45;;
62696;SDS011;48761;42.680;23.312;2023-07-13T03:39:26;13.05;;;7.97;;
62696;SDS011;48761;42.680;23.312;2023-07-13T03:41:52;12.38;;;8.50;;
62696;SDS011;48761;42.680;23.312;2023-07-13T03:44:18;14.90;;;8.30;;
62696;SDS011;48761;42.680;23.312;2023-07-13T03:46:44;17.13;;;9.75;;
62696;SDS011;48761;42.680;23.312;2023-07-13T03:49:10;15.73;;;8.45;;
62696;SDS011;48761;42.680;23.312;2023-07-13T03:51:37;15.80;;;8.23;;
62696;SDS011;48761;42.680;23.312;2023-07-13T03:54:03;15.63;;;10.48;;
62696;SDS011;48761;42.680;23.312;2023-07-13T03:56:29;14.40;;;8.60;;
62696;SDS011;48761;42.680;23.312;2023-07-13T03:58:55;13.00;;;9.40;;
62696;SDS011;48761;42.680;23.312;2023-07-13T04:01:23;12.00;;;8.50;;
62696;SDS011;48761;42.680;23.312;2023-07-13T04:03:50;15.25;;;8.45;;
62696;SDS011;48761;42.680;23.312;2023-07-13T04:06:23;12.40;;;8.50;;
62696;SDS011;48761;42.680;23.312;2023-07-13T04:08:52;12.48;;;8.95;;
62696;SDS011;48761;42.680;23.312;2023-07-13T04:11:20;12.85;;;8.32;;
62696;SDS011;48761;42.680;23.312;2023-07-13T04:17:23;16.10;;;9.80;;
62696;SDS011;48761;42.680;23.312;2023-07-13T04:20:25;15.50;;;9.40;;
62696;SDS011;48761;42.680;23.312;2023-07-13T04:23:02;15.37;;;9.47;;
62696;SDS011;48761;42.680;23.312;2023-07-13T04:25:44;14.30;;;9.32;;
62696;SDS011;48761;42.680;23.312;2023-07-13T04:28:13;15.90;;;9.55;;
62696;SDS011;48761;42.680;23.312;2023-07-13T04:33:27;13.07;;;9.23;;
62696;SDS011;48761;42.680;23.312;2023-07-13T04:57:48;15.00;;;8.60;;
62696;SDS011;48761;42.680;23.312;2023-07-13T05:00:46;18.52;;;10.25;;
62696;SDS011;48761;42.680;23.312;2023-07-13T05:03:12;15.40;;;9.40;;
62696;SDS011;48761;42.680;23.312;2023-07-13T05:05:38;16.27;;;9.55;;
62696;SDS011;48761;42.680;23.312;2023-07-13T05:08:14;18.33;;;10.68;;
62696;SDS011;48761;42.680;23.312;2023-07-13T05:10:40;16.27;;;11.23;;
62696;SDS011;48761;42.680;23.312;2023-07-13T05:13:09;18.15;;;10.65;;
62696;SDS011;48761;42.680;23.312;2023-07-13T05:16:20;19.48;;;11.40;;
62696;SDS011;48761;42.680;23.312;2023-07-13T05:18:53;21.23;;;11.00;;
62696;SDS011;48761;42.680;23.312;2023-07-13T05:21:24;18.67;;;10.80;;
62696;SDS011;48761;42.680;23.312;2023-07-13T05:23:51;21.13;;;11.07;;
62696;SDS011;48761;42.680;23.312;2023-07-13T05:26:18;15.75;;;11.20;;
62696;SDS011;48761;42.680;23.312;2023-07-13T05:28:47;21.23;;;11.20;;
62696;SDS011;48761;42.680;23.312;2023-07-13T05:31:13;19.45;;;11.48;;
62696;SDS011;48761;42.680;23.312;2023-07-13T05:33:43;22.13;;;12.82;;
62696;SDS011;48761;42.680;23.312;2023-07-13T05:36:09;18.50;;;11.20;;
62696;SDS011;48761;42.680;23.312;2023-07-13T05:38:35;20.08;;;12.38;;
62696;SDS011;48761;42.680;23.312;2023-07-13T05:41:01;21.48;;;11.88;;
62696;SDS011;48761;42.680;23.312;2023-07-13T05:43:27;23.05;;;11.52;;
62696;SDS011;48761;42.680;23.312;2023-07-13T05:45:54;17.70;;;11.43;;
62696;SDS011;48761;42.680;23.312;2023-07-13T05:48:21;20.35;;;11.23;;
62696;SDS011;48761;42.680;23.312;2023-07-13T05:50:47;20.77;;;11.60;;
62696;SDS011;48761;42.680;23.312;2023-07-13T05:53:14;19.27;;;12.65;;
62696;SDS011;48761;42.680;23.312;2023-07-13T05:55:41;18.02;;;11.25;;
62696;SDS011;48761;42.680;23.312;2023-07-13T05:58:11;16.95;;;10.88;;
62696;SDS011;48761;42.680;23.312;2023-07-13T06:00:37;19.13;;;11.75;;
62696;SDS011;48761;42.680;23.312;2023-07-13T06:03:03;16.67;;;11.35;;
62696;SDS011;48761;42.680;23.312;2023-07-13T06:05:29;18.98;;;10.55;;
62696;SDS011;48761;42.680;23.312;2023-07-13T06:07:56;21.70;;;11.50;;
62696;SDS011;48761;42.680;23.312;2023-07-13T06:10:22;14.85;;;10.63;;
62696;SDS011;48761;42.680;23.312;2023-07-13T06:12:48;17.42;;;10.07;;
62696;SDS011;48761;42.680;23.312;2023-07-13T06:15:14;20.13;;;10.40;;
62696;SDS011;48761;42.680;23.312;2023-07-13T06:17:40;21.45;;;11.30;;
62696;SDS011;48761;42.680;23.312;2023-07-13T06:20:06;19.17;;;10.35;;
62696;SDS011;48761;42.680;23.312;2023-07-13T06:22:44;18.45;;;10.45;;
62696;SDS011;48761;42.680;23.312;2023-07-13T06:25:12;16.42;;;9.77;;
62696;SDS011;48761;42.680;23.312;2023-07-13T06:27:38;16.42;;;10.20;;
62696;SDS011;48761;42.680;23.312;2023-07-13T06:30:04;16.20;;;9.48;;
62696;SDS011;48761;42.680;23.312;2023-07-13T06:32:30;14.55;;;8.68;;
62696;SDS011;48761;42.680;23.312;2023-07-13T06:34:58;17.98;;;9.48;;
62696;SDS011;48761;42.680;23.312;2023-07-13T06:37:31;21.13;;;9.57;;
62696;SDS011;48761;42.680;23.312;2023-07-13T06:40:31;18.67;;;9.55;;
62696;SDS011;48761;42.680;23.312;2023-07-13T06:43:08;18.90;;;9.38;;
62696;SDS011;48761;42.680;23.312;2023-07-13T06:48:40;21.30;;;9.60;;
62696;SDS011;48761;42.680;23.312;2023-07-13T06:51:36;14.68;;;9.93;;
62696;SDS011;48761;42.680;23.312;2023-07-13T06:54:02;15.13;;;9.20;;
62696;SDS011;48761;42.680;23.312;2023-07-13T06:56:29;17.45;;;8.45;;
62696;SDS011;48761;42.680;23.312;2023-07-13T06:58:55;13.20;;;8.05;;
62696;SDS011;48761;42.680;23.312;2023-07-13T07:01:21;14.38;;;8.90;;
62696;SDS011;48761;42.680;23.312;2023-07-13T07:03:46;15.48;;;9.27;;
62696;SDS011;48761;42.680;23.312;2023-07-13T07:06:15;12.85;;;7.82;;
62696;SDS011;48761;42.680;23.312;2023-07-13T07:08:42;13.63;;;8.75;;
62696;SDS011;48761;42.680;23.312;2023-07-13T07:11:10;11.55;;;8.18;;
62696;SDS011;48761;42.680;23.312;2023-07-13T07:17:03;13.73;;;8.88;;
62696;SDS011;48761;42.680;23.312;2023-07-13T07:19:30;11.43;;;8.88;;
62696;SDS011;48761;42.680;23.312;2023-07-13T07:21:56;13.60;;;8.57;;
62696;SDS011;48761;42.680;23.312;2023-07-13T07:24:25;21.10;;;8.93;;
62696;SDS011;48761;42.680;23.312;2023-07-13T07:26:51;16.13;;;9.20;;
62696;SDS011;48761;42.680;23.312;2023-07-13T07:29:17;11.93;;;8.18;;
62696;SDS011;48761;42.680;23.312;2023-07-13T07:31:43;16.60;;;8.30;;
62696;SDS011;48761;42.680;23.312;2023-07-13T07:34:09;15.18;;;8.80;;
62696;SDS011;48761;42.680;23.312;2023-07-13T07:36:35;13.07;;;8.85;;
62696;SDS011;48761;42.680;23.312;2023-07-13T07:39:01;16.85;;;8.85;;
62696;SDS011;48761;42.680;23.312;2023-07-13T07:41:27;18.13;;;8.88;;
62696;SDS011;48761;42.680;23.312;2023-07-13T07:43:52;12.18;;;8.50;;
62696;SDS011;48761;42.680;23.312;2023-07-13T07:46:18;15.85;;;10.05;;
62696;SDS011;48761;42.680;23.312;2023-07-13T07:48:44;12.00;;;8.48;;
62696;SDS011;48761;42.680;23.312;2023-07-13T07:51:10;12.25;;;8.65;;
62696;SDS011;48761;42.680;23.312;2023-07-13T07:53:36;12.93;;;7.90;;
62696;SDS011;48761;42.680;23.312;2023-07-13T07:56:02;12.75;;;8.32;;
62696;SDS011;48761;42.680;23.312;2023-07-13T07:58:28;12.13;;;7.68;;
62696;SDS011;48761;42.680;23.312;2023-07-13T08:01:01;14.50;;;8.55;;
62696;SDS011;48761;42.680;23.312;2023-07-13T08:03:28;11.93;;;8.18;;
62696;SDS011;48761;42.680;23.312;2023-07-13T08:05:54;11.88;;;7.82;;
62696;SDS011;48761;42.680;23.312;2023-07-13T08:08:19;11.52;;;8.05;;
62696;SDS011;48761;42.680;23.312;2023-07-13T08:10:46;11.75;;;7.70;;
62696;SDS011;48761;42.680;23.312;2023-07-13T08:13:12;10.85;;;7.72;;
62696;SDS011;48761;42.680;23.312;2023-07-13T08:15:40;14.38;;;8.43;;
62696;SDS011;48761;42.680;23.312;2023-07-13T08:18:06;12.88;;;7.80;;
62696;SDS011;48761;42.680;23.312;2023-07-13T08:20:32;13.48;;;7.80;;
62696;SDS011;48761;42.680;23.312;2023-07-13T08:23:01;12.55;;;8.07;;
62696;SDS011;48761;42.680;23.312;2023-07-13T08:25:28;12.15;;;8.52;;
62696;SDS011;48761;42.680;23.312;2023-07-13T08:27:55;12.35;;;8.20;;
62696;SDS011;48761;42.680;23.312;2023-07-13T08:30:21;13.77;;;8.73;;
62696;SDS011;48761;42.680;23.312;2023-07-13T08:32:47;16.55;;;8.35;;
62696;SDS011;48761;42.680;23.312;2023-07-13T08:35:13;15.07;;;8.40;;
62696;SDS011;48761;42.680;23.312;2023-07-13T08:37:39;13.20;;;8.38;;
62696;SDS011;48761;42.680;23.312;2023-07-13T08:40:05;16.77;;;8.40;;
62696;SDS011;48761;42.680;23.312;2023-07-13T08:43:08;19.73;;;8.63;;
62696;SDS011;48761;42.680;23.312;2023-07-13T08:53:50;14.32;;;8.55;;
62696;SDS011;48761;42.680;23.312;2023-07-13T08:56:21;12.45;;;8.07;;
62696;SDS011;48761;42.680;23.312;2023-07-13T08:59:00;14.10;;;8.10;;
62696;SDS011;48761;42.680;23.312;2023-07-13T09:04:56;13.88;;;8.20;;
62696;SDS011;48761;42.680;23.312;2023-07-13T09:35:37;17.33;;;10.82;;
62696;SDS011;48761;42.680;23.312;2023-07-13T09:38:14;22.20;;;8.82;;
62696;SDS011;48761;42.680;23.312;2023-07-13T09:44:00;15.82;;;10.07;;
62696;SDS011;48761;42.680;23.312;2023-07-13T09:46:36;23.23;;;10.05;;
62696;SDS011;48761;42.680;23.312;2023-07-13T09:49:03;20.27;;;9.07;;
62696;SDS011;48761;42.680;23.312;2023-07-13T09:51:29;17.60;;;9.10;;
62696;SDS011;48761;42.680;23.312;2023-07-13T09:53:56;15.18;;;8.57;;
62696;SDS011;48761;42.680;23.312;2023-07-13T09:56:23;15.48;;;8.95;;
62696;SDS011;48761;42.680;23.312;2023-07-13T09:58:59;17.97;;;9.40;;
62696;SDS011;48761;42.680;23.312;2023-07-13T10:01:35;18.95;;;9.13;;
62696;SDS011;48761;42.680;23.312;2023-07-13T10:04:10;15.65;;;9.18;;
62696;SDS011;48761;42.680;23.312;2023-07-13T10:06:45;19.30;;;9.85;;
62696;SDS011;48761;42.680;23.312;2023-07-13T10:11:43;21.27;;;9.88;;
62696;SDS011;48761;42.680;23.312;2023-07-13T10:14:16;17.23;;;9.52;;
62696;SDS011;48761;42.680;23.312;2023-07-13T10:16:46;19.60;;;9.32;;
62696;SDS011;48761;42.680;23.312;2023-07-13T10:19:18;15.55;;;8.50;;
62696;SDS011;48761;42.680;23.312;2023-07-13T10:21:58;14.50;;;8.65;;
62696;SDS011;48761;42.680;23.312;2023-07-13T10:24:27;12.18;;;7.32;;
62696;SDS011;48761;42.680;23.312;2023-07-13T10:29:25;11.18;;;5.05;;
62696;SDS011;48761;42.680;23.312;2023-07-13T10:31:55;14.82;;;4.90;;
62696;SDS011;48761;42.680;23.312;2023-07-13T10:34:20;8.57;;;4.72;;
62696;SDS011;48761;42.680;23.312;2023-07-13T10:36:47;11.02;;;5.70;;
62696;SDS011;48761;42.680;23.312;2023-07-13T10:39:15;14.15;;;5.85;;
62696;SDS011;48761;42.680;23.312;2023-07-13T10:41:44;11.88;;;6.53;;
62696;SDS011;48761;42.680;23.312;2023-07-13T10:47:39;13.85;;;6.97;;
62696;SDS011;48761;42.680;23.312;2023-07-13T10:50:17;10.63;;;4.53;;
62696;SDS011;48761;42.680;23.312;2023-07-13T10:56:32;9.05;;;4.78;;
62696;SDS011;48761;42.680;23.312;2023-07-13T10:59:23;10.65;;;5.45;;
62696;SDS011;48761;42.680;23.312;2023-07-13T11:01:56;9.82;;;4.88;;
62696;SDS011;48761;42.680;23.312;2023-07-13T11:04:41;9.15;;;5.18;;
62696;SDS011;48761;42.680;23.312;2023-07-13T11:07:28;10.98;;;5.60;;
62696;SDS011;48761;42.680;23.312;2023-07-13T11:23:42;9.00;;;5.03;;
62696;SDS011;48761;42.680;23.312;2023-07-13T11:31:52;10.13;;;5.32;;
62696;SDS011;48761;42.680;23.312;2023-07-13T11:37:34;17.52;;;7.38;;
62696;SDS011;48761;42.680;23.312;2023-07-13T11:40:04;12.13;;;6.32;;
62696;SDS011;48761;42.680;23.312;2023-07-13T11:43:13;15.65;;;6.32;;
62696;SDS011;48761;42.680;23.312;2023-07-13T11:52:54;11.80;;;5.57;;
62696;SDS011;48761;42.680;23.312;2023-07-13T11:55:37;10.93;;;5.82;;
62696;SDS011;48761;42.680;23.312;2023-07-13T12:05:33;11.80;;;5.28;;
62696;SDS011;48761;42.680;23.312;2023-07-13T12:12:45;6.95;;;4.90;;
62696;SDS011;48761;42.680;23.312;2023-07-13T12:15:55;8.55;;;4.70;;
62696;SDS011;48761;42.680;23.312;2023-07-13T12:26:26;19.98;;;6.03;;
62696;SDS011;48761;42.680;23.312;2023-07-13T12:29:00;18.17;;;5.78;;
62696;SDS011;48761;42.680;23.312;2023-07-13T12:31:44;14.55;;;5.45;;
62696;SDS011;48761;42.680;23.312;2023-07-13T12:34:51;11.02;;;5.10;;
62696;SDS011;48761;42.680;23.312;2023-07-13T12:37:56;10.60;;;4.90;;
62696;SDS011;48761;42.680;23.312;2023-07-13T12:40:35;11.65;;;5.25;;
62696;SDS011;48761;42.680;23.312;2023-07-13T12:43:03;12.93;;;5.05;;
62696;SDS011;48761;42.680;23.312;2023-07-13T12:45:32;15.38;;;5.50;;
62696;SDS011;48761;42.680;23.312;2023-07-13T12:48:18;22.45;;;5.60;;
62696;SDS011;48761;42.680;23.312;2023-07-13T12:51:00;25.65;;;5.70;;
62696;SDS011;48761;42.680;23.312;2023-07-13T12:53:38;7.88;;;4.68;;
62696;SDS011;48761;42.680;23.312;2023-07-13T12:56:08;11.40;;;5.45;;
62696;SDS011;48761;42.680;23.312;2023-07-13T12:59:08;12.82;;;5.07;;
62696;SDS011;48761;42.680;23.312;2023-07-13T13:02:09;12.52;;;4.93;;
62696;SDS011;48761;42.680;23.312;2023-07-13T13:52:46;20.55;;;5.20;;
62696;SDS011;48761;42.680;23.312;2023-07-13T13:57:52;8.27;;;4.43;;
62696;SDS011;48761;42.680;23.312;2023-07-13T14:00:37;13.13;;;4.50;;
62696;SDS011;48761;42.680;23.312;2023-07-13T14:03:04;21.27;;;5.80;;
62696;SDS011;48761;42.680;23.312;2023-07-13T14:05:31;14.02;;;5.07;;
62696;SDS011;48761;42.680;23.312;2023-07-13T14:07:58;8.45;;;4.43;;
62696;SDS011;48761;42.680;23.312;2023-07-13T14:10:25;12.15;;;5.57;;
62696;SDS011;48761;42.680;23.312;2023-07-13T14:12:53;8.65;;;5.10;;
62696;SDS011;48761;42.680;23.312;2023-07-13T14:15:50;9.23;;;5.47;;
62696;SDS011;48761;42.680;23.312;2023-07-13T14:18:27;18.40;;;5.32;;
62696;SDS011;48761;42.680;23.312;2023-07-13T14:21:02;9.80;;;4.57;;
62696;SDS011;48761;42.680;23.312;2023-07-13T14:23:29;12.30;;;4.78;;
62696;SDS011;48761;42.680;23.312;2023-07-13T14:26:17;13.80;;;5.60;;
62696;SDS011;48761;42.680;23.312;2023-07-13T14:28:56;14.65;;;5.20;;
62696;SDS011;48761;42.680;23.312;2023-07-13T14:31:24;7.05;;;4.43;;
62696;SDS011;48761;42.680;23.312;2023-07-13T14:39:09;10.43;;;5.65;;
62696;SDS011;48761;42.680;23.312;2023-07-13T14:41:46;13.65;;;5.20;;
62696;SDS011;48761;42.680;23.312;2023-07-13T14:44:26;11.93;;;5.55;;
62696;SDS011;48761;42.680;23.312;2023-07-13T14:46:54;17.42;;;5.78;;
62696;SDS011;48761;42.680;23.312;2023-07-13T14:51:58;12.45;;;5.55;;
62696;SDS011;48761;42.680;23.312;2023-07-13T14:54:59;11.57;;;5.63;;
62696;SDS011;48761;42.680;23.312;2023-07-13T14:57:25;11.85;;;5.70;;
62696;SDS011;48761;42.680;23.312;2023-07-13T14:59:51;12.35;;;5.72;;
62696;SDS011;48761;42.680;23.312;2023-07-13T15:02:27;12.85;;;5.78;;
62696;SDS011;48761;42.680;23.312;2023-07-13T15:04:56;13.05;;;5.38;;
62696;SDS011;48761;42.680;23.312;2023-07-13T15:07:23;15.07;;;5.53;;
62696;SDS011;48761;42.680;23.312;2023-07-13T15:09:49;12.00;;;5.10;;
62696;SDS011;48761;42.680;23.312;2023-07-13T15:12:15;11.45;;;4.90;;
62696;SDS011;48761;42.680;23.312;2023-07-13T15:14:42;12.32;;;5.68;;
62696;SDS011;48761;42.680;23.312;2023-07-13T15:19:53;12.27;;;4.80;;
62696;SDS011;48761;42.680;23.312;2023-07-13T15:22:19;11.57;;;5.22;;
62696;SDS011;48761;42.680;23.312;2023-07-13T15:24:48;14.35;;;5.10;;
62696;SDS011;48761;42.680;23.312;2023-07-13T15:27:14;10.88;;;5.43;;
62696;SDS011;48761;42.680;23.312;2023-07-13T15:29:40;9.57;;;4.82;;
62696;SDS011;48761;42.680;23.312;2023-07-13T15:32:08;11.98;;;5.15;;
62696;SDS011;48761;42.680;23.312;2023-07-13T15:34:38;14.27;;;5.05;;
62696;SDS011;48761;42.680;23.312;2023-07-13T15:37:08;10.77;;;4.78;;
62696;SDS011;48761;42.680;23.312;2023-07-13T15:39:38;14.43;;;4.78;;
62696;SDS011;48761;42.680;23.312;2023-07-13T15:42:04;13.25;;;5.85;;
62696;SDS011;48761;42.680;23.312;2023-07-13T15:44:31;13.00;;;5.85;;
62696;SDS011;48761;42.680;23.312;2023-07-13T15:46:57;11.73;;;5.50;;
62696;SDS011;48761;42.680;23.312;2023-07-13T15:49:23;16.70;;;5.65;;
62696;SDS011;48761;42.680;23.312;2023-07-13T15:51:49;12.90;;;5.40;;
62696;SDS011;48761;42.680;23.312;2023-07-13T15:54:16;11.40;;;5.38;;
62696;SDS011;48761;42.680;23.312;2023-07-13T15:56:45;8.38;;;4.70;;
62696;SDS011;48761;42.680;23.312;2023-07-13T15:59:17;8.88;;;5.05;;
62696;SDS011;48761;42.680;23.312;2023-07-13T16:01:42;11.93;;;5.72;;
62696;SDS011;48761;42.680;23.312;2023-07-13T16:04:08;11.82;;;5.50;;
62696;SDS011;48761;42.680;23.312;2023-07-13T16:06:35;12.15;;;5.20;;
62696;SDS011;48761;42.680;23.312;2023-07-13T16:09:03;12.07;;;5.30;;
62696;SDS011;48761;42.680;23.312;2023-07-13T16:11:34;26.50;;;17.55;;
62696;SDS011;48761;42.680;23.312;2023-07-13T16:14:01;17.42;;;9.38;;
62696;SDS011;48761;42.680;23.312;2023-07-13T16:16:30;29.02;;;17.15;;
62696;SDS011;48761;42.680;23.312;2023-07-13T16:18:59;16.35;;;9.25;;
62696;SDS011;48761;42.680;23.312;2023-07-13T16:21:28;11.27;;;6.80;;
62696;SDS011;48761;42.680;23.312;2023-07-13T16:23:58;14.32;;;7.35;;
62696;SDS011;48761;42.680;23.312;2023-07-13T16:26:37;18.70;;;8.75;;
62696;SDS011;48761;42.680;23.312;2023-07-13T16:29:03;14.48;;;7.25;;
62696;SDS011;48761;42.680;23.312;2023-07-13T16:31:32;11.45;;;6.03;;
62696;SDS011;48761;42.680;23.312;2023-07-13T16:33:58;13.13;;;7.85;;
62696;SDS011;48761;42.680;23.312;2023-07-13T16:36:24;19.00;;;9.05;;
62696;SDS011;48761;42.680;23.312;2023-07-13T16:38:50;11.60;;;5.57;;
62696;SDS011;48761;42.680;23.312;2023-07-13T16:41:16;13.00;;;5.90;;
62696;SDS011;48761;42.680;23.312;2023-07-13T16:43:42;12.50;;;7.75;;
62696;SDS011;48761;42.680;23.312;2023-07-13T16:46:09;16.08;;;6.55;;
62696;SDS011;48761;42.680;23.312;2023-07-13T16:48:37;10.82;;;5.82;;
62696;SDS011;48761;42.680;23.312;2023-07-13T16:51:03;15.73;;;7.60;;
62696;SDS011;48761;42.680;23.312;2023-07-13T16:53:30;11.10;;;6.78;;
62696;SDS011;48761;42.680;23.312;2023-07-13T16:55:56;19.75;;;7.78;;
62696;SDS011;48761;42.680;23.312;2023-07-13T16:58:23;14.90;;;7.22;;
62696;SDS011;48761;42.680;23.312;2023-07-13T17:00:50;12.38;;;7.38;;
62696;SDS011;48761;42.680;23.312;2023-07-13T17:03:16;18.38;;;9.75;;
62696;SDS011;48761;42.680;23.312;2023-07-13T17:05:42;16.38;;;9.57;;
62696;SDS011;48761;42.680;23.312;2023-07-13T17:08:11;15.00;;;9.93;;
62696;SDS011;48761;42.680;23.312;2023-07-13T17:10:39;20.77;;;12.27;;
62696;SDS011;48761;42.680;23.312;2023-07-13T17:13:07;10.13;;;5.90;;
62696;SDS011;48761;42.680;23.312;2023-07-13T17:15:35;14.02;;;6.63;;
62696;SDS011;48761;42.680;23.312;2023-07-13T17:18:02;11.02;;;6.00;;
62696;SDS011;48761;42.680;23.312;2023-07-13T17:20:29;13.45;;;7.00;;
62696;SDS011;48761;42.680;23.312;2023-07-13T17:22:57;19.30;;;11.93;;
62696;SDS011;48761;42.680;23.312;2023-07-13T17:25:23;10.98;;;6.70;;
62696;SDS011;48761;42.680;23.312;2023-07-13T17:27:49;15.30;;;5.70;;
62696;SDS011;48761;42.680;23.312;2023-07-13T17:30:19;11.57;;;5.70;;
62696;SDS011;48761;42.680;23.312;2023-07-13T17:32:47;12.23;;;6.50;;
62696;SDS011;48761;42.680;23.312;2023-07-13T17:37:48;12.90;;;6.35;;
62696;SDS011;48761;42.680;23.312;2023-07-13T17:40:15;12.35;;;5.78;;
62696;SDS011;48761;42.680;23.312;2023-07-13T17:42:41;14.35;;;8.10;;
62696;SDS011;48761;42.680;23.312;2023-07-13T17:45:07;15.65;;;6.47;;
62696;SDS011;48761;42.680;23.312;2023-07-13T17:47:33;12.75;;;6.18;;
62696;SDS011;48761;42.680;23.312;2023-07-13T17:49:59;14.95;;;7.68;;
62696;SDS011;48761;42.680;23.312;2023-07-13T17:52:25;11.63;;;7.88;;
62696;SDS011;48761;42.680;23.312;2023-07-13T17:54:51;17.20;;;6.30;;
62696;SDS011;48761;42.680;23.312;2023-07-13T17:57:17;14.38;;;6.28;;
62696;SDS011;48761;42.680;23.312;2023-07-13T17:59:43;10.60;;;6.22;;
62696;SDS011;48761;42.680;23.312;2023-07-13T18:02:11;14.52;;;8.23;;